createdAt,value
2018-03-14T00:01:24.565Z,13.17
2018-03-14T00:03:51.208Z,15.10
2018-03-14T00:06:17.795Z,13.73
2018-03-14T00:08:44.407Z,13.97
2018-03-14T00:11:11.006Z,14.83
2018-03-14T00:13:37.603Z,15.30
2018-03-14T00:16:04.234Z,14.30
2018-03-14T00:18:30.818Z,14.97
2018-03-14T00:20:57.423Z,14.70
2018-03-14T00:23:24.024Z,16.50
2018-03-14T00:25:50.630Z,16.77
2018-03-14T00:28:17.231Z,16.77
2018-03-14T00:30:43.837Z,15.67
2018-03-14T00:33:10.443Z,15.70
2018-03-14T00:35:37.039Z,16.20
2018-03-14T00:38:03.664Z,15.07
2018-03-14T00:40:30.264Z,14.47
2018-03-14T00:42:56.873Z,15.77
2018-03-14T00:45:23.467Z,14.93
2018-03-14T00:47:50.079Z,14.77
2018-03-14T00:50:16.678Z,14.50
2018-03-14T00:52:43.271Z,15.17
2018-03-14T00:55:09.881Z,15.20
2018-03-14T00:57:36.479Z,14.00
2018-03-14T01:00:03.141Z,13.90
2018-03-14T01:02:29.743Z,14.00
2018-03-14T01:04:56.357Z,13.97
2018-03-14T01:07:22.948Z,14.90
2018-03-14T01:09:49.550Z,14.90
2018-03-14T01:12:16.178Z,14.17
2018-03-14T01:14:42.794Z,14.30
2018-03-14T01:17:09.403Z,14.20
2018-03-14T01:19:35.999Z,13.57
2018-03-14T01:22:02.603Z,13.30
2018-03-14T01:24:29.199Z,14.40
2018-03-14T01:26:55.815Z,14.00
2018-03-14T01:29:22.432Z,13.80
2018-03-14T01:31:49.019Z,13.63
2018-03-14T01:34:15.623Z,15.13
2018-03-14T01:36:42.222Z,15.67
2018-03-14T01:39:08.830Z,15.63
2018-03-14T01:41:35.427Z,14.67
2018-03-14T01:44:02.027Z,14.73
2018-03-14T01:46:28.614Z,14.07
2018-03-14T01:48:55.256Z,14.23
2018-03-14T01:51:21.847Z,13.77
2018-03-14T01:53:48.438Z,13.27
2018-03-14T01:56:15.043Z,14.30
2018-03-14T01:58:41.643Z,13.97
2018-03-14T02:01:08.247Z,13.20
2018-03-14T02:03:34.871Z,12.97
2018-03-14T02:06:01.515Z,13.97
2018-03-14T02:08:28.103Z,14.33
2018-03-14T02:10:54.723Z,14.60
2018-03-14T02:13:21.323Z,14.10
2018-03-14T02:15:47.919Z,13.80
2018-03-14T02:18:14.520Z,13.70
2018-03-14T02:20:41.113Z,14.37
2018-03-14T02:23:07.720Z,13.87
2018-03-14T02:25:34.315Z,13.40
2018-03-14T02:28:00.928Z,14.20
2018-03-14T02:30:27.517Z,14.20
2018-03-14T02:32:54.122Z,14.83
2018-03-14T02:35:20.725Z,14.20
2018-03-14T02:37:47.315Z,13.30
2018-03-14T02:40:13.942Z,14.93
2018-03-14T02:42:40.546Z,14.97
2018-03-14T02:45:07.155Z,15.30
2018-03-14T02:47:33.759Z,15.77
2018-03-14T02:50:00.358Z,16.50
2018-03-14T02:52:26.955Z,16.00
2018-03-14T02:54:53.563Z,15.93
2018-03-14T02:57:20.161Z,15.10
2018-03-14T02:59:46.755Z,15.20
2018-03-14T03:02:13.359Z,15.10
2018-03-14T03:04:39.955Z,15.80
2018-03-14T03:07:06.554Z,13.97
2018-03-14T03:09:33.158Z,13.80
2018-03-14T03:11:59.769Z,15.97
2018-03-14T03:14:26.354Z,14.93
2018-03-14T03:16:53.035Z,14.77
2018-03-14T03:19:19.627Z,16.17
2018-03-14T03:21:46.220Z,14.90
2018-03-14T03:24:12.819Z,14.37
2018-03-14T03:26:39.417Z,14.63
2018-03-14T03:29:06.019Z,14.67
2018-03-14T03:31:32.624Z,15.23
2018-03-14T03:33:59.231Z,14.43
2018-03-14T03:36:28.416Z,14.47
2018-03-14T03:38:55.031Z,14.07
2018-03-14T03:41:21.630Z,14.33
2018-03-14T03:43:48.224Z,13.50
2018-03-14T03:46:14.831Z,14.20
2018-03-14T03:48:41.418Z,13.57
2018-03-14T03:51:08.043Z,13.50
2018-03-14T03:53:34.705Z,13.97
2018-03-14T03:56:01.303Z,13.50
2018-03-14T03:58:27.895Z,14.50
2018-03-14T04:00:54.503Z,14.50
2018-03-14T04:03:21.099Z,14.30
2018-03-14T04:05:47.696Z,15.47
2018-03-14T04:08:14.298Z,15.67
2018-03-14T04:10:40.889Z,15.37
2018-03-14T04:13:08.366Z,15.07
2018-03-14T04:15:34.962Z,15.93
2018-03-14T04:18:01.575Z,14.57
2018-03-14T04:20:28.172Z,14.60
2018-03-14T04:22:54.779Z,13.93
2018-03-14T04:25:21.371Z,14.40
2018-03-14T04:27:47.963Z,15.97
2018-03-14T04:30:14.651Z,14.80
2018-03-14T04:32:41.254Z,14.50
2018-03-14T04:35:07.855Z,13.77
2018-03-14T04:37:34.446Z,14.70
2018-03-14T04:40:01.060Z,13.13
2018-03-14T04:42:27.659Z,13.40
2018-03-14T04:44:54.272Z,14.10
2018-03-14T04:47:20.881Z,15.00
2018-03-14T04:49:47.480Z,15.13
2018-03-14T04:52:14.088Z,15.93
2018-03-14T04:54:40.682Z,15.77
2018-03-14T04:57:07.293Z,16.27
2018-03-14T04:59:33.887Z,16.90
2018-03-14T05:02:00.493Z,17.27
2018-03-14T05:04:27.087Z,17.90
2018-03-14T05:06:53.693Z,17.50
2018-03-14T05:09:20.292Z,16.77
2018-03-14T05:11:46.909Z,17.33
2018-03-14T05:14:13.501Z,18.60
2018-03-14T05:16:40.100Z,18.63
2018-03-14T05:19:06.695Z,19.60
2018-03-14T05:21:33.307Z,18.47
2018-03-14T05:23:59.900Z,18.10
2018-03-14T05:26:26.499Z,18.13
2018-03-14T05:28:53.108Z,17.27
2018-03-14T05:31:19.702Z,18.60
2018-03-14T05:33:46.314Z,18.87
2018-03-14T05:36:12.898Z,18.73
2018-03-14T05:38:39.508Z,20.70
2018-03-14T05:41:06.156Z,19.87
2018-03-14T05:43:32.762Z,18.23
2018-03-14T05:45:59.354Z,18.80
2018-03-14T05:48:25.966Z,20.50
2018-03-14T05:50:52.554Z,19.60
2018-03-14T05:53:19.171Z,19.60
2018-03-14T05:55:45.762Z,19.60
2018-03-14T05:58:12.367Z,20.20
2018-03-14T06:00:38.983Z,21.77
2018-03-14T06:03:05.586Z,21.50
2018-03-14T06:05:32.186Z,21.63
2018-03-14T06:07:58.799Z,22.07
2018-03-14T06:10:25.410Z,21.17
2018-03-14T06:12:52.007Z,22.90
2018-03-14T06:15:18.621Z,21.30
2018-03-14T06:17:45.230Z,22.13
2018-03-14T06:20:11.843Z,22.20
2018-03-14T06:22:38.428Z,22.17
2018-03-14T06:25:05.036Z,22.33
2018-03-14T06:27:31.629Z,22.00
2018-03-14T06:29:58.235Z,22.43
2018-03-14T06:32:24.838Z,23.40
2018-03-14T06:34:51.430Z,24.97
2018-03-14T06:37:18.030Z,26.53
2018-03-14T06:39:44.625Z,27.13
2018-03-14T06:42:11.226Z,26.67
2018-03-14T06:44:37.820Z,27.97
2018-03-14T06:47:05.143Z,28.80
2018-03-14T06:49:31.758Z,28.50
2018-03-14T06:51:58.359Z,29.23
2018-03-14T06:54:24.972Z,27.40
2018-03-14T06:56:51.571Z,27.13
2018-03-14T06:59:23.950Z,27.87
2018-03-14T07:01:56.519Z,26.30
2018-03-14T07:04:39.823Z,26.93
2018-03-14T07:07:06.445Z,27.50
2018-03-14T07:09:33.036Z,26.97
2018-03-14T07:11:59.700Z,27.30
2018-03-14T07:14:26.238Z,26.63
2018-03-14T07:16:52.835Z,26.87
2018-03-14T07:19:19.444Z,26.00
2018-03-14T07:21:46.043Z,25.93
2018-03-14T07:24:12.886Z,28.07
2018-03-14T07:26:39.467Z,27.10
2018-03-14T07:29:06.080Z,27.10
2018-03-14T07:31:32.699Z,27.17
2018-03-14T07:33:59.304Z,28.70
2018-03-14T07:36:25.956Z,28.50
2018-03-14T07:38:52.550Z,26.83
2018-03-14T07:41:20.191Z,29.83
2018-03-14T07:43:46.799Z,28.93
2018-03-14T07:46:13.395Z,29.37
2018-03-14T07:48:40.033Z,30.13
2018-03-14T07:51:06.615Z,27.47
2018-03-14T07:53:33.260Z,28.90
2018-03-14T07:56:02.871Z,29.00
2018-03-14T07:58:31.694Z,30.07
2018-03-14T08:00:58.481Z,29.90
2018-03-14T08:03:25.080Z,29.50
2018-03-14T08:05:51.680Z,31.40
2018-03-14T08:08:18.277Z,27.83
2018-03-14T08:10:44.879Z,28.50
2018-03-14T08:13:11.483Z,27.73
2018-03-14T08:15:38.094Z,29.10
2018-03-14T08:18:04.691Z,27.50
2018-03-14T08:20:31.292Z,30.07
2018-03-14T08:22:57.887Z,28.60
2018-03-14T08:25:24.490Z,26.10
2018-03-14T08:27:51.090Z,28.43
2018-03-14T08:30:17.701Z,26.83
2018-03-14T08:32:44.295Z,27.87
2018-03-14T08:35:10.895Z,28.20
2018-03-14T08:37:37.499Z,26.70
2018-03-14T08:40:04.111Z,26.30
2018-03-14T08:42:30.743Z,27.20
2018-03-14T08:44:57.347Z,26.17
2018-03-14T08:47:23.947Z,27.10
2018-03-14T08:49:50.546Z,25.03
2018-03-14T08:52:17.154Z,24.50
2018-03-14T08:54:43.750Z,23.53
2018-03-14T08:57:10.359Z,21.90
2018-03-14T08:59:36.952Z,24.90
2018-03-14T09:02:03.554Z,23.80
2018-03-14T09:04:30.146Z,22.83
2018-03-14T09:06:56.756Z,23.30
2018-03-14T09:09:23.351Z,23.93
2018-03-14T09:11:49.967Z,24.33
2018-03-14T09:14:16.563Z,23.17
2018-03-14T09:16:43.164Z,21.60
2018-03-14T09:19:09.764Z,20.03
2018-03-14T09:21:36.359Z,20.67
2018-03-14T09:24:02.956Z,20.43
2018-03-14T09:26:29.547Z,19.37
2018-03-14T09:28:56.151Z,18.93
2018-03-14T09:31:22.804Z,19.20
2018-03-14T09:33:49.677Z,16.00
2018-03-14T09:36:16.262Z,16.87
2018-03-14T09:38:42.863Z,17.57
2018-03-14T09:41:09.459Z,16.60
2018-03-14T09:43:36.069Z,17.43
2018-03-14T09:46:02.735Z,16.17
2018-03-14T09:48:29.277Z,19.80
2018-03-14T09:50:55.882Z,15.20
2018-03-14T09:53:22.483Z,14.47
2018-03-14T09:55:49.103Z,14.70
2018-03-14T09:58:15.719Z,13.20
2018-03-14T10:00:42.387Z,12.40
2018-03-14T10:03:08.919Z,14.17
2018-03-14T10:05:35.527Z,12.97
2018-03-14T10:08:02.119Z,12.10
2018-03-14T10:10:28.740Z,12.20
2018-03-14T10:12:55.342Z,13.20
2018-03-14T10:15:21.946Z,13.00
2018-03-14T10:17:48.539Z,12.63
2018-03-14T10:20:15.144Z,13.50
2018-03-14T10:22:41.739Z,11.90
2018-03-14T10:25:08.342Z,11.27
2018-03-14T10:27:34.947Z,11.60
2018-03-14T10:30:01.555Z,12.37
2018-03-14T10:32:28.158Z,12.30
2018-03-14T10:34:54.748Z,12.27
2018-03-14T10:37:21.356Z,13.10
2018-03-14T10:39:47.946Z,14.20
2018-03-14T10:42:14.558Z,12.93
2018-03-14T10:44:41.204Z,11.50
2018-03-14T10:47:07.803Z,11.60
2018-03-14T10:49:34.408Z,12.10
2018-03-14T10:52:01.000Z,11.20
2018-03-14T10:54:27.606Z,11.20
2018-03-14T10:56:54.216Z,11.70
2018-03-14T10:59:20.820Z,11.80
2018-03-14T11:01:47.427Z,11.57
2018-03-14T11:04:14.105Z,11.50
2018-03-14T11:06:40.692Z,9.13
2018-03-14T11:09:07.291Z,11.10
2018-03-14T11:11:33.911Z,11.60
2018-03-14T11:14:00.495Z,11.13
2018-03-14T11:16:27.090Z,11.47
2018-03-14T11:18:53.694Z,10.63
2018-03-14T11:21:20.295Z,9.80
2018-03-14T11:23:47.012Z,9.37
2018-03-14T11:26:13.616Z,10.43
2018-03-14T11:28:40.215Z,9.10
2018-03-14T11:31:06.807Z,9.47
2018-03-14T11:33:33.413Z,9.33
2018-03-14T11:36:00.015Z,9.80
2018-03-14T11:38:26.613Z,8.40
2018-03-14T11:40:53.206Z,8.33
2018-03-14T11:43:19.814Z,9.37
2018-03-14T11:45:46.415Z,9.10
2018-03-14T11:48:13.007Z,9.87
2018-03-14T11:50:39.611Z,9.33
2018-03-14T11:53:06.203Z,9.60
2018-03-14T11:55:32.794Z,9.67
2018-03-14T11:57:59.390Z,9.80
2018-03-14T12:00:26.103Z,9.33
2018-03-14T12:02:52.715Z,9.87
2018-03-14T12:05:19.312Z,8.83
2018-03-14T12:07:45.903Z,9.13
2018-03-14T12:10:12.506Z,8.60
2018-03-14T12:12:39.095Z,9.40
2018-03-14T12:15:05.731Z,8.30
2018-03-14T12:17:32.307Z,8.97
2018-03-14T12:19:58.914Z,8.27
2018-03-14T12:22:31.387Z,8.20
2018-03-14T12:24:57.987Z,7.93
2018-03-14T12:27:24.584Z,8.43
2018-03-14T12:29:51.178Z,8.30
2018-03-14T12:32:17.791Z,8.87
2018-03-14T12:34:44.428Z,7.97
2018-03-14T12:37:10.983Z,7.50
2018-03-14T12:39:37.583Z,8.03
2018-03-14T12:42:04.192Z,8.23
2018-03-14T12:44:30.783Z,8.57
2018-03-14T12:46:57.378Z,8.80
2018-03-14T12:49:23.978Z,9.53
2018-03-14T12:51:50.575Z,8.47
2018-03-14T12:54:17.175Z,9.20
2018-03-14T12:56:43.799Z,8.80
2018-03-14T12:59:10.379Z,9.20
2018-03-14T13:01:36.970Z,8.40
2018-03-14T13:04:03.568Z,9.00
2018-03-14T13:06:30.155Z,8.73
2018-03-14T13:08:56.764Z,8.90
2018-03-14T13:11:23.370Z,8.90
2018-03-14T13:13:50.020Z,8.90
2018-03-14T13:16:16.611Z,9.00
2018-03-14T13:18:43.206Z,8.70
2018-03-14T13:21:09.830Z,9.10
2018-03-14T13:23:36.396Z,8.70
2018-03-14T13:26:02.988Z,8.60
2018-03-14T13:28:29.590Z,8.30
2018-03-14T13:30:58.392Z,7.80
2018-03-14T13:33:27.934Z,8.50
2018-03-14T13:35:54.528Z,7.83
2018-03-14T13:38:21.132Z,8.03
2018-03-14T13:40:47.774Z,8.03
2018-03-14T13:43:14.333Z,7.03
2018-03-14T13:45:40.980Z,7.53
2018-03-14T13:48:07.582Z,6.97
2018-03-14T13:50:34.265Z,7.83
2018-03-14T13:53:00.874Z,6.80
2018-03-14T13:55:27.512Z,7.10
2018-03-14T13:57:54.095Z,6.30
2018-03-14T14:00:20.699Z,6.37
2018-03-14T14:02:47.286Z,6.20
2018-03-14T14:05:13.887Z,5.90
2018-03-14T14:07:40.538Z,6.60
2018-03-14T14:10:07.075Z,7.07
2018-03-14T14:12:33.773Z,6.70
2018-03-14T14:15:00.377Z,7.20
2018-03-14T14:17:26.967Z,7.40
2018-03-14T14:19:53.559Z,6.83
2018-03-14T14:22:20.155Z,6.10
2018-03-14T14:24:46.746Z,6.33
2018-03-14T14:27:13.347Z,6.53
2018-03-14T14:29:39.937Z,6.30
2018-03-14T14:32:07.490Z,5.90
2018-03-14T14:34:35.202Z,6.20
2018-03-14T14:37:01.799Z,5.60
2018-03-14T14:39:28.387Z,5.50
2018-03-14T14:41:54.982Z,5.70
2018-03-14T14:44:21.576Z,6.10
2018-03-14T14:46:48.176Z,6.13
2018-03-14T14:49:14.767Z,5.87
2018-03-14T14:51:41.362Z,6.07
2018-03-14T14:54:07.945Z,5.53
2018-03-14T14:56:34.547Z,5.47
2018-03-14T14:59:01.135Z,5.00
2018-03-14T15:01:27.723Z,5.60
2018-03-14T15:03:54.315Z,5.53
2018-03-14T15:06:20.916Z,6.27
2018-03-14T15:08:47.654Z,6.00
2018-03-14T15:11:14.232Z,6.47
2018-03-14T15:13:40.831Z,5.53
2018-03-14T15:16:07.415Z,5.63
2018-03-14T15:18:34.113Z,5.50
2018-03-14T15:21:00.711Z,5.10
2018-03-14T15:23:27.316Z,6.13
2018-03-14T15:25:53.903Z,5.43
2018-03-14T15:28:20.503Z,5.60
2018-03-14T15:30:47.084Z,5.47
2018-03-14T15:33:13.677Z,5.33
2018-03-14T15:35:40.264Z,5.50
2018-03-14T15:38:06.847Z,4.77
2018-03-14T15:40:33.454Z,4.97
2018-03-14T15:43:00.037Z,4.90
2018-03-14T15:45:26.636Z,4.60
2018-03-14T15:47:53.218Z,4.83
2018-03-14T15:50:19.824Z,4.77
2018-03-14T15:52:46.415Z,4.90
2018-03-14T15:55:13.010Z,4.60
2018-03-14T15:57:39.614Z,4.90
2018-03-14T16:00:06.215Z,5.20
2018-03-14T16:02:32.827Z,5.10
2018-03-14T16:04:59.443Z,5.07
2018-03-14T16:07:26.027Z,5.03
2018-03-14T16:09:52.626Z,5.27
2018-03-14T16:12:19.269Z,5.00
2018-03-14T16:14:45.808Z,4.40
2018-03-14T16:17:12.447Z,4.67
2018-03-14T16:19:39.031Z,4.43
2018-03-14T16:22:05.653Z,4.40
2018-03-14T16:24:32.238Z,4.43
2018-03-14T16:26:58.849Z,4.43
2018-03-14T16:29:25.476Z,3.83
2018-03-14T16:31:52.025Z,4.20
2018-03-14T16:34:18.611Z,4.00
2018-03-14T16:36:45.213Z,4.23
2018-03-14T16:39:11.808Z,4.23
2018-03-14T16:41:38.399Z,4.00
2018-03-14T16:44:04.983Z,4.30
2018-03-14T16:46:31.575Z,4.37
2018-03-14T16:48:58.165Z,3.57
2018-03-14T16:51:24.751Z,3.43
2018-03-14T16:53:51.351Z,3.90
2018-03-14T16:56:17.947Z,4.03
2018-03-14T16:58:44.543Z,4.37
2018-03-14T17:01:11.132Z,4.27
2018-03-14T17:03:37.727Z,4.00
2018-03-14T17:06:04.322Z,4.23
2018-03-14T17:08:30.919Z,4.00
2018-03-14T17:10:57.498Z,4.07
2018-03-14T17:13:24.092Z,4.37
2018-03-14T17:15:50.736Z,4.10
2018-03-14T17:18:17.343Z,4.33
2018-03-14T17:20:43.927Z,3.90
2018-03-14T17:23:10.524Z,4.27
2018-03-14T17:25:37.114Z,3.83
2018-03-14T17:28:03.711Z,3.63
2018-03-14T17:30:30.307Z,3.63
2018-03-14T17:32:56.967Z,3.80
2018-03-14T17:35:23.557Z,4.00
2018-03-14T17:37:50.160Z,4.27
2018-03-14T17:40:16.743Z,3.80
2018-03-14T17:42:43.338Z,4.10
2018-03-14T17:45:09.972Z,4.20
2018-03-14T17:47:36.585Z,3.87
2018-03-14T17:50:03.264Z,4.23
2018-03-14T17:52:29.843Z,3.70
2018-03-14T17:54:56.439Z,4.57
2018-03-14T17:57:23.022Z,3.97
2018-03-14T17:59:49.619Z,4.37
2018-03-14T18:02:16.294Z,3.60
2018-03-14T18:04:42.973Z,3.90
2018-03-14T18:07:09.585Z,4.37
2018-03-14T18:09:36.176Z,4.60
2018-03-14T18:12:02.783Z,4.77
2018-03-14T18:14:29.372Z,4.70
2018-03-14T18:16:55.970Z,4.47
2018-03-14T18:19:22.554Z,4.63
2018-03-14T18:21:49.156Z,4.83
2018-03-14T18:24:15.743Z,4.87
2018-03-14T18:26:42.335Z,4.83
2018-03-14T18:29:08.947Z,5.13
2018-03-14T18:31:35.555Z,5.10
2018-03-14T18:34:02.155Z,4.40
2018-03-14T18:36:29.655Z,5.47
2018-03-14T18:38:56.246Z,5.00
2018-03-14T18:41:22.851Z,5.00
2018-03-14T18:43:49.438Z,5.70
2018-03-14T18:46:16.025Z,4.90
2018-03-14T18:48:42.643Z,5.27
2018-03-14T18:51:09.239Z,4.70
2018-03-14T18:53:35.836Z,5.27
2018-03-14T18:56:02.432Z,5.50
2018-03-14T18:58:29.023Z,6.07
2018-03-14T19:00:55.612Z,5.57
2018-03-14T19:03:22.207Z,5.43
2018-03-14T19:05:48.825Z,5.60
2018-03-14T19:08:15.512Z,5.60
2018-03-14T19:10:42.083Z,5.90
2018-03-14T19:13:08.678Z,5.77
2018-03-14T19:15:35.264Z,5.33
2018-03-14T19:18:01.867Z,5.57
2018-03-14T19:20:28.458Z,6.20
2018-03-14T19:22:55.047Z,5.70
2018-03-14T19:25:21.655Z,5.67
2018-03-14T19:27:48.245Z,6.47
2018-03-14T19:30:14.839Z,5.97
2018-03-14T19:32:41.427Z,6.17
2018-03-14T19:35:08.034Z,6.37
2018-03-14T19:37:34.611Z,6.30
2018-03-14T19:40:01.230Z,6.33
2018-03-14T19:42:27.819Z,5.57
2018-03-14T19:44:54.416Z,6.10
2018-03-14T19:47:21.110Z,6.50
2018-03-14T19:49:47.823Z,5.90
2018-03-14T19:52:14.423Z,6.00
2018-03-14T19:54:41.024Z,6.50
2018-03-14T19:57:07.608Z,5.80
2018-03-14T19:59:34.203Z,6.67
2018-03-14T20:02:00.799Z,5.90
2018-03-14T20:04:27.383Z,6.57
2018-03-14T20:06:53.999Z,6.67
2018-03-14T20:09:20.639Z,6.60
2018-03-14T20:11:47.237Z,6.47
2018-03-14T20:14:13.824Z,6.67
2018-03-14T20:16:40.431Z,8.20
2018-03-14T20:19:07.030Z,7.57
2018-03-14T20:21:33.622Z,7.33
2018-03-14T20:24:00.223Z,7.30
2018-03-14T20:26:26.814Z,6.87
2018-03-14T20:28:53.411Z,7.67
2018-03-14T20:31:20.003Z,7.80
2018-03-14T20:33:46.599Z,7.27
2018-03-14T20:36:13.206Z,8.00
2018-03-14T20:38:39.790Z,7.00
2018-03-14T20:41:06.384Z,7.47
2018-03-14T20:43:32.995Z,8.60
2018-03-14T20:45:59.610Z,8.20
2018-03-14T20:48:26.260Z,7.97
2018-03-14T20:50:52.922Z,8.70
2018-03-14T20:53:19.527Z,8.90
2018-03-14T20:55:46.124Z,7.87
2018-03-14T20:58:12.710Z,8.10
2018-03-14T21:00:39.303Z,8.37
2018-03-14T21:03:05.911Z,9.63
2018-03-14T21:05:32.495Z,10.37
2018-03-14T21:07:59.096Z,9.17
2018-03-14T21:10:25.681Z,9.30
2018-03-14T21:12:52.306Z,9.97
2018-03-14T21:15:18.894Z,8.87
2018-03-14T21:17:45.478Z,9.33
2018-03-14T21:20:12.086Z,9.07
2018-03-14T21:22:38.678Z,9.33
2018-03-14T21:25:05.287Z,9.40
2018-03-14T21:27:31.886Z,10.10
2018-03-14T21:29:58.598Z,9.03
2018-03-14T21:32:25.203Z,10.33
2018-03-14T21:34:51.843Z,9.80
2018-03-14T21:37:18.415Z,9.90
2018-03-14T21:39:46.940Z,10.10
2018-03-14T21:42:14.801Z,10.77
2018-03-14T21:44:41.399Z,10.87
2018-03-14T21:47:07.999Z,10.80
2018-03-14T21:49:34.597Z,10.87
2018-03-14T21:52:01.191Z,10.33
2018-03-14T21:54:27.783Z,10.70
2018-03-14T21:56:54.383Z,9.90
2018-03-14T21:59:20.975Z,11.20
2018-03-14T22:01:47.575Z,10.90
2018-03-14T22:04:14.167Z,11.20
2018-03-14T22:06:40.786Z,11.70
2018-03-14T22:09:07.376Z,11.53
2018-03-14T22:11:33.974Z,11.03
2018-03-14T22:14:00.632Z,11.30
2018-03-14T22:16:27.177Z,11.50
2018-03-14T22:18:53.767Z,10.80
2018-03-14T22:21:20.371Z,10.60
2018-03-14T22:23:46.967Z,11.07
2018-03-14T22:26:13.570Z,10.80
2018-03-14T22:28:40.174Z,10.70
2018-03-14T22:31:06.780Z,10.37
2018-03-14T22:33:33.373Z,10.80
2018-03-14T22:35:59.963Z,11.07
2018-03-14T22:38:27.085Z,11.30
2018-03-14T22:40:53.798Z,11.03
2018-03-14T22:43:20.386Z,11.80
2018-03-14T22:45:46.983Z,11.37
2018-03-14T22:48:13.588Z,10.27
2018-03-14T22:50:40.179Z,11.60
2018-03-14T22:53:06.784Z,11.33
2018-03-14T22:55:33.379Z,10.83
2018-03-14T22:57:59.983Z,11.30
2018-03-14T23:00:26.577Z,10.73
2018-03-14T23:02:53.267Z,11.43
2018-03-14T23:05:19.851Z,10.67
2018-03-14T23:07:46.494Z,11.20
2018-03-14T23:10:13.127Z,10.17
2018-03-14T23:12:39.710Z,10.57
2018-03-14T23:15:07.183Z,11.30
2018-03-14T23:17:33.823Z,10.83
2018-03-14T23:20:00.434Z,10.40
2018-03-14T23:22:27.042Z,11.20
2018-03-14T23:24:53.647Z,10.23
2018-03-14T23:27:20.256Z,10.20
2018-03-14T23:29:46.861Z,11.00
2018-03-14T23:32:13.456Z,10.60
2018-03-14T23:34:40.060Z,10.50
2018-03-14T23:37:06.658Z,10.87
2018-03-14T23:39:33.255Z,10.60
2018-03-14T23:41:59.863Z,10.60
2018-03-14T23:44:26.474Z,11.40
2018-03-14T23:46:53.071Z,11.40
2018-03-14T23:49:19.671Z,10.60
2018-03-14T23:51:46.320Z,10.27
2018-03-14T23:54:12.969Z,10.70
2018-03-14T23:56:39.667Z,11.50
2018-03-14T23:59:06.267Z,10.70
